aviador You're here:

KCKM Decoded Metar

in
Report Time2018-01-22 01:55:00
UTC Time2018-01-22 02:00:19
Flight Rules vfr VFR
Wind140° at 07 kt
W.Decomp.*RWY 18: 5.4 kt HW 4.5 kt LCW
W.Rank140° ranks 8
Current wind is above 140° avg. (6.9)
Visibility9999 m
Phenomena:N/A
Clouds:Broken 050 Hf
Expected CloudBase > 800 ft AGL from Temp-Dew spread
Ceiling5,000 ft
Temp17°C
Dew Point15°C (88% RH)
AAT16.1°C
QNH1014 hPa
Raw Report
KCKM 220155Z AUTO 14007KT 10SM BKN050 17/15 A2994 RMK A01=

Extra information for KCKM:More info

Social comments